createdAt,value
2023-04-22T00:02:01.885Z,69.23
2023-04-22T00:04:30.028Z,69.45
2023-04-22T00:06:58.175Z,69.57
2023-04-22T00:09:26.155Z,69.67
2023-04-22T00:11:53.904Z,69.74
2023-04-22T00:14:21.688Z,69.88
2023-04-22T00:16:49.506Z,70.01
2023-04-22T00:19:17.220Z,70.11
2023-04-22T00:21:45.182Z,70.31
2023-04-22T00:24:13.050Z,70.75
2023-04-22T00:26:43.549Z,70.93
2023-04-22T00:29:11.414Z,70.78
2023-04-22T00:31:39.402Z,70.78
2023-04-22T00:34:07.439Z,70.92
2023-04-22T00:36:35.300Z,71.24
2023-04-22T00:39:03.171Z,71.32
2023-04-22T00:41:32.294Z,71.33
2023-04-22T00:44:00.872Z,71.58
2023-04-22T00:46:29.490Z,71.78
2023-04-22T00:48:58.233Z,71.94
2023-04-22T00:51:26.081Z,72.13
2023-04-22T00:53:53.936Z,72.06
2023-04-22T00:56:22.361Z,71.90
2023-04-22T00:58:50.391Z,71.98
2023-04-22T01:01:18.845Z,72.29
2023-04-22T01:03:48.542Z,72.56
2023-04-22T01:06:20.512Z,72.74
2023-04-22T01:08:48.646Z,72.79
2023-04-22T01:11:16.600Z,72.87
2023-04-22T01:13:44.365Z,72.88
2023-04-22T01:16:13.222Z,73.01
2023-04-22T01:18:41.808Z,73.13
2023-04-22T01:21:09.979Z,73.30
2023-04-22T01:23:38.252Z,73.50
2023-04-22T01:26:06.181Z,73.63
2023-04-22T01:28:34.073Z,73.58
2023-04-22T01:31:02.187Z,73.61
2023-04-22T01:33:30.144Z,73.74
2023-04-22T01:35:59.697Z,73.97
2023-04-22T01:38:27.511Z,74.04
2023-04-22T01:40:55.467Z,74.02
2023-04-22T01:43:23.744Z,74.15
2023-04-22T01:45:51.515Z,74.28
2023-04-22T01:48:19.359Z,74.37
2023-04-22T01:50:47.220Z,74.42
2023-04-22T01:53:14.952Z,74.46
2023-04-22T01:55:43.374Z,74.60
2023-04-22T01:58:11.198Z,74.63
2023-04-22T02:00:39.054Z,74.77
2023-04-22T02:03:07.572Z,75.06
2023-04-22T02:05:35.526Z,75.13
2023-04-22T02:08:03.317Z,75.07
2023-04-22T02:10:31.402Z,75.15
2023-04-22T02:12:59.148Z,75.26
2023-04-22T02:15:26.963Z,75.37
2023-04-22T02:17:55.032Z,75.55
2023-04-22T02:20:22.772Z,75.53
2023-04-22T02:22:51.077Z,75.67
2023-04-22T02:25:18.936Z,75.98
2023-04-22T02:27:46.676Z,76.05
2023-04-22T02:30:14.777Z,76.12
2023-04-22T02:32:42.740Z,76.19
2023-04-22T02:35:11.763Z,76.32
2023-04-22T02:37:39.916Z,76.51
2023-04-22T02:40:09.273Z,76.59
2023-04-22T02:42:36.985Z,76.73
2023-04-22T02:45:05.532Z,76.91
2023-04-22T02:47:33.358Z,77.05
2023-04-22T02:50:01.174Z,77.19
2023-04-22T02:52:28.983Z,77.30
2023-04-22T02:54:58.798Z,77.37
2023-04-22T02:57:26.978Z,77.45
2023-04-22T02:59:54.868Z,77.43
2023-04-22T03:02:23.145Z,77.56
2023-04-22T03:04:52.375Z,77.64
2023-04-22T03:07:20.415Z,77.67
2023-04-22T03:09:48.113Z,77.79
2023-04-22T03:12:15.968Z,77.82
2023-04-22T03:14:43.816Z,77.85
2023-04-22T03:17:11.674Z,77.96
2023-04-22T03:19:39.697Z,78.08
2023-04-22T03:22:08.254Z,78.08
2023-04-22T03:24:36.079Z,78.08
2023-04-22T03:27:04.299Z,78.23
2023-04-22T03:29:32.212Z,78.17
2023-04-22T03:31:59.967Z,78.11
2023-04-22T03:34:27.872Z,78.18
2023-04-22T03:36:56.376Z,78.23
2023-04-22T03:39:24.201Z,78.29
2023-04-22T03:41:51.922Z,78.37
2023-04-22T03:44:19.651Z,78.49
2023-04-22T03:46:47.415Z,78.53
2023-04-22T03:49:15.629Z,78.60
2023-04-22T03:51:43.405Z,78.60
2023-04-22T03:54:11.249Z,78.66
2023-04-22T03:56:39.014Z,78.71
2023-04-22T03:59:06.732Z,78.76
2023-04-22T04:01:36.920Z,78.83
2023-04-22T04:04:13.492Z,78.97
2023-04-22T04:06:41.623Z,79.02
2023-04-22T04:09:14.116Z,79.03
2023-04-22T04:11:41.919Z,78.99
2023-04-22T04:14:09.879Z,78.97
2023-04-22T04:16:37.776Z,78.94
2023-04-22T04:19:06.446Z,78.86
2023-04-22T04:21:34.338Z,78.81
2023-04-22T04:24:03.439Z,78.85
2023-04-22T04:26:32.726Z,78.86
2023-04-22T04:29:01.941Z,78.82
2023-04-22T04:31:29.943Z,78.77
2023-04-22T04:33:58.645Z,78.70
2023-04-22T04:36:27.750Z,78.55
2023-04-22T04:38:56.920Z,78.28
2023-04-22T04:41:28.341Z,78.03
2023-04-22T04:44:00.721Z,77.88
2023-04-22T04:46:30.350Z,77.74
2023-04-22T04:48:58.921Z,77.51
2023-04-22T04:51:26.684Z,77.33
2023-04-22T04:53:54.696Z,76.99
2023-04-22T04:56:24.513Z,76.69
2023-04-22T04:58:52.389Z,76.23
2023-04-22T05:01:20.444Z,75.30
2023-04-22T05:03:48.494Z,74.39
2023-04-22T05:06:17.445Z,73.70
2023-04-22T05:08:45.570Z,72.91
2023-04-22T05:11:13.487Z,72.22
2023-04-22T05:13:41.653Z,71.54
2023-04-22T05:16:09.627Z,71.08
2023-04-22T05:18:37.353Z,70.74
2023-04-22T05:21:05.314Z,70.00
2023-04-22T05:23:33.148Z,69.58
2023-04-22T05:26:00.982Z,68.37
2023-04-22T05:28:28.792Z,64.01
2023-04-22T05:30:57.986Z,58.70
2023-04-22T05:33:25.655Z,54.59
2023-04-22T05:35:53.850Z,51.19
2023-04-22T05:38:21.693Z,48.40
2023-04-22T05:40:49.439Z,46.06
2023-04-22T05:43:17.234Z,43.83
2023-04-22T05:45:45.223Z,42.61
2023-04-22T05:48:13.038Z,41.84
2023-04-22T05:50:40.896Z,40.98
2023-04-22T05:53:08.680Z,39.88
2023-04-22T05:55:36.485Z,39.10
2023-04-22T05:58:04.286Z,38.23
2023-04-22T06:00:32.250Z,38.22
2023-04-22T06:03:00.184Z,37.77
2023-04-22T06:05:28.332Z,37.58
2023-04-22T06:07:56.474Z,37.23
2023-04-22T06:10:24.292Z,36.99
2023-04-22T06:12:53.593Z,36.07
2023-04-22T06:15:21.971Z,35.87
2023-04-22T06:17:50.700Z,35.98
2023-04-22T06:20:18.612Z,35.45
2023-04-22T06:22:46.654Z,35.59
2023-04-22T06:25:15.264Z,35.61
2023-04-22T06:27:43.213Z,35.57
2023-04-22T06:30:12.315Z,34.64
2023-04-22T06:32:40.237Z,34.73
2023-04-22T06:35:08.460Z,35.36
2023-04-22T06:37:37.078Z,35.29
2023-04-22T06:40:05.353Z,34.91
2023-04-22T06:42:33.046Z,34.53
2023-04-22T06:45:06.601Z,34.45
2023-04-22T06:47:34.761Z,33.35
2023-04-22T06:50:02.691Z,33.38
2023-04-22T06:52:30.430Z,34.56
2023-04-22T06:54:58.182Z,34.98
2023-04-22T06:57:28.201Z,34.77
2023-04-22T06:59:56.229Z,34.41
2023-04-22T07:02:24.110Z,34.66
2023-04-22T07:04:55.185Z,34.47
2023-04-22T07:07:23.949Z,33.52
2023-04-22T07:22:07.128Z,32.37
2023-04-22T07:24:38.796Z,31.71
2023-04-22T07:27:48.396Z,32.06
2023-04-22T07:30:20.169Z,32.01
2023-04-22T07:32:49.205Z,32.44
2023-04-22T07:35:16.258Z,33.42
2023-04-22T07:37:43.178Z,33.60
2023-04-22T07:41:45.228Z,31.92
2023-04-22T07:44:18.529Z,31.13
2023-04-22T07:46:50.703Z,30.15
2023-04-22T07:49:20.119Z,29.44
2023-04-22T07:51:47.276Z,30.08
2023-04-22T08:07:32.665Z,31.09
2023-04-22T08:20:56.523Z,27.88
2023-04-22T08:24:01.453Z,28.72
2023-04-22T08:27:50.743Z,29.85
2023-04-22T08:41:29.513Z,26.99
2023-04-22T08:44:22.272Z,26.40
2023-04-22T08:58:19.639Z,26.19
2023-04-22T09:01:14.289Z,25.79
2023-04-22T09:03:45.037Z,25.26
2023-04-22T09:06:20.015Z,25.45
2023-04-22T09:08:50.669Z,25.43
2023-04-22T09:11:18.849Z,24.74
2023-04-22T09:13:49.632Z,24.22
2023-04-22T09:16:18.774Z,23.66
2023-04-22T09:18:50.230Z,25.02
2023-04-22T09:21:18.128Z,25.28
2023-04-22T09:23:51.477Z,24.65
2023-04-22T09:26:29.588Z,23.03
2023-04-22T09:28:59.389Z,23.04
2023-04-22T09:31:28.608Z,23.34
2023-04-22T09:33:58.879Z,22.49
2023-04-22T09:36:31.964Z,22.98
2023-04-22T09:39:09.642Z,23.96
2023-04-22T09:41:39.989Z,22.73
2023-04-22T09:44:16.677Z,23.49
2023-04-22T09:46:51.744Z,22.93
2023-04-22T09:49:21.612Z,23.86
2023-04-22T09:51:57.128Z,23.52
2023-04-22T09:54:26.581Z,22.35
2023-04-22T09:56:55.722Z,21.87
2023-04-22T09:59:42.868Z,21.96
2023-04-22T10:02:16.760Z,21.40
2023-04-22T10:04:47.595Z,21.35
2023-04-22T10:08:51.486Z,20.48
2023-04-22T10:11:38.868Z,20.69
2023-04-22T10:14:10.716Z,20.25
2023-04-22T10:16:59.309Z,19.66
2023-04-22T10:19:33.007Z,19.59
2023-04-22T10:22:05.976Z,20.11
2023-04-22T10:24:38.596Z,20.05
2023-04-22T10:27:12.822Z,19.59
2023-04-22T10:29:43.857Z,20.31
2023-04-22T10:32:22.786Z,18.72
2023-04-22T10:35:06.603Z,19.88
2023-04-22T10:38:08.694Z,21.21
2023-04-22T10:42:14.971Z,19.19
2023-04-22T10:44:48.417Z,19.85
2023-04-22T10:47:42.874Z,20.66
2023-04-22T10:50:20.151Z,21.04
2023-04-22T10:53:45.861Z,21.44
2023-04-22T10:57:55.022Z,22.39
2023-04-22T11:01:30.621Z,22.20
2023-04-22T11:05:27.115Z,22.08
2023-04-22T11:09:17.709Z,21.51
2023-04-22T11:22:46.038Z,19.17
2023-04-22T11:25:44.842Z,19.46
2023-04-22T11:30:05.121Z,20.14
2023-04-22T11:32:32.268Z,18.14
2023-04-22T11:35:09.026Z,18.63
2023-04-22T11:37:51.276Z,19.11
2023-04-22T11:40:46.220Z,19.90
2023-04-22T11:43:15.083Z,20.35
2023-04-22T11:45:44.362Z,20.47
2023-04-22T11:48:17.408Z,19.31
2023-04-22T11:50:45.909Z,18.75
2023-04-22T11:53:24.418Z,18.47
2023-04-22T11:55:53.049Z,19.15
2023-04-22T11:58:54.639Z,17.73
2023-04-22T12:01:25.905Z,16.82
2023-04-22T12:04:01.580Z,17.55
2023-04-22T12:06:32.594Z,18.50
2023-04-22T12:09:02.636Z,19.65
2023-04-22T12:13:47.667Z,18.24
2023-04-22T12:16:21.190Z,18.28
2023-04-22T12:18:56.753Z,17.60
2023-04-22T12:21:42.555Z,16.80
2023-04-22T12:24:12.028Z,16.59
2023-04-22T12:26:41.694Z,15.24
2023-04-22T12:29:09.946Z,15.76
2023-04-22T12:31:49.568Z,16.32
2023-04-22T12:34:18.429Z,17.33
2023-04-22T12:39:19.741Z,18.22
2023-04-22T12:42:41.112Z,18.80
2023-04-22T12:45:10.902Z,19.42
2023-04-22T12:47:42.607Z,19.84
2023-04-22T12:50:15.327Z,20.09
2023-04-22T12:52:43.336Z,19.71
2023-04-22T12:55:11.273Z,19.85
2023-04-22T12:57:40.099Z,18.63
2023-04-22T13:00:17.217Z,17.87
2023-04-22T13:02:47.799Z,18.41
2023-04-22T13:05:17.366Z,18.86
2023-04-22T13:07:53.182Z,19.43
2023-04-22T13:10:28.797Z,18.76
2023-04-22T13:13:06.429Z,18.52
2023-04-22T13:15:44.466Z,18.45
2023-04-22T13:18:13.989Z,18.48
2023-04-22T13:20:42.842Z,17.85
2023-04-22T13:23:11.017Z,17.74
2023-04-22T13:25:39.050Z,18.19
2023-04-22T13:28:11.797Z,17.64
2023-04-22T13:30:40.444Z,18.01
2023-04-22T13:33:08.319Z,17.83
2023-04-22T13:35:36.949Z,18.48
2023-04-22T13:38:05.995Z,18.33
2023-04-22T13:40:36.041Z,18.09
2023-04-22T13:43:05.221Z,18.05
2023-04-22T13:45:33.088Z,17.87
2023-04-22T13:48:01.270Z,18.14
2023-04-22T13:50:29.227Z,18.71
2023-04-22T13:52:57.308Z,19.28
2023-04-22T13:55:26.806Z,19.26
2023-04-22T13:57:54.874Z,18.31
2023-04-22T14:00:27.515Z,18.26
2023-04-22T14:02:56.587Z,18.15
2023-04-22T14:05:27.464Z,19.54
2023-04-22T14:07:56.090Z,19.45
2023-04-22T14:10:23.980Z,19.50
2023-04-22T14:12:52.310Z,20.37
2023-04-22T14:15:20.484Z,20.59
2023-04-22T14:17:49.944Z,20.16
2023-04-22T14:20:18.097Z,19.22
2023-04-22T14:22:46.525Z,19.36
2023-04-22T14:25:14.778Z,19.18
2023-04-22T14:27:43.214Z,18.48
2023-04-22T14:30:12.291Z,19.01
2023-04-22T14:32:42.472Z,19.51
2023-04-22T14:35:10.513Z,18.52
2023-04-22T14:37:42.182Z,18.03
2023-04-22T14:40:12.275Z,17.89
2023-04-22T14:42:47.898Z,18.08
2023-04-22T14:45:26.956Z,16.89
2023-04-22T14:47:56.402Z,16.47
2023-04-22T14:50:25.800Z,16.20
2023-04-22T14:56:22.188Z,16.59
2023-04-22T14:58:49.383Z,15.45
2023-04-22T15:01:16.548Z,15.43
2023-04-22T15:03:43.699Z,15.68
2023-04-22T15:06:11.446Z,16.27
2023-04-22T15:08:40.421Z,16.87
2023-04-22T15:11:07.244Z,16.24
2023-04-22T15:13:33.799Z,16.65
2023-04-22T15:16:05.825Z,17.00
2023-04-22T15:18:32.700Z,17.14
2023-04-22T15:21:02.413Z,16.75
2023-04-22T15:23:28.956Z,16.06
2023-04-22T15:25:55.873Z,15.74
2023-04-22T15:28:23.880Z,16.11
2023-04-22T15:30:55.970Z,16.00
2023-04-22T15:33:24.992Z,16.04
2023-04-22T15:35:51.988Z,16.51
2023-04-22T15:38:25.980Z,17.29
2023-04-22T15:40:56.327Z,17.85
2023-04-22T15:43:23.618Z,18.54
2023-04-22T15:45:52.455Z,18.38
2023-04-22T15:48:20.287Z,17.93
2023-04-22T15:50:53.865Z,17.74
2023-04-22T15:53:23.504Z,17.83
2023-04-22T15:55:53.117Z,17.22
2023-04-22T15:58:20.557Z,16.85
2023-04-22T16:00:51.632Z,17.61
2023-04-22T16:03:21.140Z,18.03
2023-04-22T16:06:33.418Z,18.37
2023-04-22T16:09:06.443Z,18.43
2023-04-22T16:11:55.683Z,19.09
2023-04-22T16:14:28.577Z,19.33
2023-04-22T16:19:53.117Z,18.72
2023-04-22T16:20:12.696Z,19.05
2023-04-22T16:22:22.531Z,18.42
2023-04-22T16:24:51.545Z,18.60
2023-04-22T16:27:18.595Z,19.20
2023-04-22T16:29:45.661Z,20.25
2023-04-22T16:32:12.805Z,21.18
2023-04-22T16:34:39.287Z,21.93
2023-04-22T16:37:05.889Z,22.60
2023-04-22T16:39:33.295Z,23.47
2023-04-22T16:59:38.709Z,27.11
2023-04-22T17:02:06.884Z,27.32
2023-04-22T17:04:34.983Z,27.87
2023-04-22T17:07:02.883Z,27.74
2023-04-22T17:09:32.847Z,27.22
2023-04-22T17:12:01.606Z,28.20
2023-04-22T17:14:29.917Z,28.66
2023-04-22T17:16:58.779Z,29.98
2023-04-22T17:19:27.957Z,30.06
2023-04-22T17:21:56.011Z,29.72
2023-04-22T17:24:25.281Z,29.18
2023-04-22T17:26:53.267Z,29.48
2023-04-22T17:29:21.963Z,29.73
2023-04-22T17:31:50.741Z,30.13
2023-04-22T17:40:36.846Z,31.43
2023-04-22T17:43:04.784Z,32.33
2023-04-22T17:45:33.201Z,32.54
2023-04-22T17:48:01.752Z,33.54
2023-04-22T17:50:29.683Z,34.39
2023-04-22T17:52:58.199Z,35.44
2023-04-22T17:55:33.167Z,35.71
2023-04-22T17:58:03.121Z,36.45
2023-04-22T18:00:33.458Z,37.48
2023-04-22T18:03:02.017Z,37.37
2023-04-22T18:05:29.985Z,36.96
2023-04-22T18:08:10.386Z,36.90
2023-04-22T18:10:38.917Z,37.33
2023-04-22T18:13:06.952Z,37.87
2023-04-22T18:15:34.811Z,39.60
2023-04-22T18:18:02.815Z,40.20
2023-04-22T18:20:30.687Z,40.00
2023-04-22T18:22:58.593Z,41.03
2023-04-22T18:25:26.909Z,41.67
2023-04-22T18:27:55.146Z,41.74
2023-04-22T18:30:23.626Z,42.07
2023-04-22T18:32:52.003Z,42.02
2023-04-22T18:35:20.302Z,41.76
2023-04-22T18:37:49.275Z,42.26
2023-04-22T18:40:17.649Z,43.01
2023-04-22T18:42:46.089Z,43.17
2023-04-22T18:45:16.695Z,42.71
2023-04-22T18:47:47.135Z,42.50
2023-04-22T18:50:15.257Z,42.93
2023-04-22T18:52:43.106Z,42.90
2023-04-22T18:55:11.398Z,42.97
2023-04-22T18:57:41.976Z,43.59
2023-04-22T19:00:10.962Z,44.92
2023-04-22T19:02:41.516Z,45.51
2023-04-22T19:05:10.696Z,45.97
2023-04-22T19:07:38.951Z,45.25
2023-04-22T19:10:07.975Z,45.77
2023-04-22T19:12:36.346Z,46.45
2023-04-22T19:15:06.974Z,46.16
2023-04-22T19:17:35.061Z,46.35
2023-04-22T19:20:05.323Z,47.05
2023-04-22T19:22:33.130Z,47.48
2023-04-22T19:25:01.186Z,47.68
2023-04-22T19:27:29.259Z,47.86
2023-04-22T19:29:57.042Z,48.44
2023-04-22T19:32:25.097Z,49.23
2023-04-22T19:34:53.960Z,49.59
2023-04-22T19:37:22.264Z,49.88
2023-04-22T19:39:50.177Z,49.43
2023-04-22T19:42:20.553Z,48.98
2023-04-22T19:44:49.861Z,49.97
2023-04-22T19:47:17.849Z,50.15
2023-04-22T19:49:46.238Z,50.29
2023-04-22T19:52:15.802Z,50.79
2023-04-22T19:54:47.757Z,50.92
2023-04-22T19:57:15.878Z,51.64
2023-04-22T19:59:45.606Z,52.50
2023-04-22T20:02:14.454Z,52.71
2023-04-22T20:04:43.238Z,53.10
2023-04-22T20:07:12.330Z,52.95
2023-04-22T20:09:43.207Z,52.14
2023-04-22T20:12:11.453Z,52.36
2023-04-22T20:14:39.480Z,53.47
2023-04-22T20:17:07.407Z,53.73
2023-04-22T20:19:35.378Z,53.06
2023-04-22T20:22:06.552Z,52.48
2023-04-22T20:24:37.277Z,52.66
2023-04-22T20:27:08.119Z,53.01
2023-04-22T20:29:38.486Z,53.05
2023-04-22T20:32:07.053Z,53.00
2023-04-22T20:34:36.190Z,53.04
2023-04-22T20:37:06.624Z,53.39
2023-04-22T20:42:21.414Z,53.32
2023-04-22T20:44:49.155Z,53.44
2023-04-22T20:47:17.317Z,53.53
2023-04-22T20:49:45.160Z,53.56
2023-04-22T20:52:13.332Z,53.64
2023-04-22T20:54:41.165Z,53.95
2023-04-22T20:57:08.872Z,54.58
2023-04-22T20:59:36.988Z,55.06
2023-04-22T21:02:06.724Z,55.06
2023-04-22T21:04:34.938Z,55.61
2023-04-22T21:07:07.044Z,55.51
2023-04-22T21:09:35.265Z,55.62
2023-04-22T21:17:35.632Z,55.27
2023-04-22T21:20:07.024Z,55.11
2023-04-22T21:22:36.034Z,55.60
2023-04-22T21:25:04.789Z,55.76
2023-04-22T21:27:34.663Z,55.70
2023-04-22T21:30:03.034Z,55.80
2023-04-22T21:32:33.200Z,55.82
2023-04-22T21:41:17.094Z,56.52
2023-04-22T21:43:48.722Z,56.52
2023-04-22T21:46:17.706Z,56.54
2023-04-22T21:48:45.623Z,56.71
2023-04-22T21:51:14.412Z,56.75
2023-04-22T21:53:44.522Z,56.83
2023-04-22T21:56:31.641Z,56.98
2023-04-22T21:59:00.777Z,56.84
2023-04-22T22:01:28.553Z,56.99
2023-04-22T22:03:57.626Z,57.17
2023-04-22T22:06:25.529Z,57.53
2023-04-22T22:08:53.465Z,57.75
2023-04-22T22:11:30.245Z,57.88
2023-04-22T22:13:59.226Z,57.79
2023-04-22T22:16:27.150Z,57.68
2023-04-22T22:18:57.838Z,57.70
2023-04-22T22:21:25.646Z,58.06
2023-04-22T22:23:53.741Z,58.45
2023-04-22T22:26:21.533Z,59.33
2023-04-22T22:28:50.464Z,59.34
2023-04-22T22:31:18.494Z,59.61
2023-04-22T22:33:48.664Z,59.52
2023-04-22T22:36:16.685Z,58.85
2023-04-22T22:38:49.125Z,58.36
2023-04-22T22:41:16.851Z,58.24
2023-04-22T22:43:44.559Z,57.94
2023-04-22T22:46:12.358Z,58.09
2023-04-22T22:48:40.342Z,58.29
2023-04-22T22:51:10.335Z,58.67
2023-04-22T22:53:38.152Z,59.05
2023-04-22T22:56:06.802Z,58.67
2023-04-22T22:58:36.272Z,58.49
2023-04-22T23:01:05.446Z,58.43
2023-04-22T23:03:33.965Z,58.07
2023-04-22T23:06:01.973Z,57.94
2023-04-22T23:08:29.629Z,58.54
2023-04-22T23:10:57.881Z,58.79
2023-04-22T23:13:25.911Z,58.91
2023-04-22T23:15:53.765Z,59.02
2023-04-22T23:18:22.137Z,59.24
2023-04-22T23:20:51.899Z,59.34
2023-04-22T23:23:19.787Z,59.63
2023-04-22T23:25:47.942Z,59.84
2023-04-22T23:28:16.100Z,59.88
2023-04-22T23:30:44.883Z,60.07
2023-04-22T23:33:14.713Z,60.27
2023-04-22T23:35:44.578Z,60.29
2023-04-22T23:38:12.415Z,60.17
2023-04-22T23:40:40.281Z,60.11
2023-04-22T23:43:08.428Z,60.49
2023-04-22T23:45:36.156Z,60.76
2023-04-22T23:48:04.650Z,60.97
2023-04-22T23:50:32.390Z,61.30
2023-04-22T23:53:00.305Z,61.36
2023-04-22T23:55:28.581Z,61.44
2023-04-22T23:57:59.080Z,61.47
